sensor_id;sensor_type;location;lat;lon;timestamp;P1;durP1;ratioP1;P2;durP2;ratioP2
22425;SDS011;11380;50.822;15.790;2022-12-07T00:04:59;38.13;;;35.43;;
22425;SDS011;11380;50.822;15.790;2022-12-07T00:10:01;36.73;;;34.30;;
22425;SDS011;11380;50.822;15.790;2022-12-07T00:15:05;37.27;;;34.77;;
22425;SDS011;11380;50.822;15.790;2022-12-07T00:20:08;36.27;;;33.93;;
22425;SDS011;11380;50.822;15.790;2022-12-07T00:25:11;36.60;;;34.30;;
22425;SDS011;11380;50.822;15.790;2022-12-07T00:30:13;36.63;;;34.33;;
22425;SDS011;11380;50.822;15.790;2022-12-07T00:35:16;36.43;;;33.90;;
22425;SDS011;11380;50.822;15.790;2022-12-07T00:40:19;34.90;;;32.80;;
22425;SDS011;11380;50.822;15.790;2022-12-07T00:45:20;35.93;;;33.73;;
22425;SDS011;11380;50.822;15.790;2022-12-07T00:50:23;36.00;;;33.60;;
22425;SDS011;11380;50.822;15.790;2022-12-07T00:55:25;36.13;;;33.80;;
22425;SDS011;11380;50.822;15.790;2022-12-07T01:00:28;37.07;;;34.57;;
22425;SDS011;11380;50.822;15.790;2022-12-07T01:05:30;36.93;;;34.27;;
22425;SDS011;11380;50.822;15.790;2022-12-07T01:10:32;37.00;;;34.50;;
22425;SDS011;11380;50.822;15.790;2022-12-07T01:15:34;35.67;;;33.37;;
22425;SDS011;11380;50.822;15.790;2022-12-07T01:20:44;34.43;;;32.33;;
22425;SDS011;11380;50.822;15.790;2022-12-07T01:25:53;35.20;;;33.00;;
22425;SDS011;11380;50.822;15.790;2022-12-07T01:31:07;26.75;;;25.05;;
22425;SDS011;11380;50.822;15.790;2022-12-07T01:36:14;35.07;;;32.97;;
22425;SDS011;11380;50.822;15.790;2022-12-07T01:41:20;34.33;;;32.33;;
22425;SDS011;11380;50.822;15.790;2022-12-07T01:46:23;34.93;;;32.83;;
22425;SDS011;11380;50.822;15.790;2022-12-07T01:51:25;36.20;;;33.93;;
22425;SDS011;11380;50.822;15.790;2022-12-07T01:56:29;34.63;;;32.53;;
22425;SDS011;11380;50.822;15.790;2022-12-07T02:01:32;34.20;;;32.20;;
22425;SDS011;11380;50.822;15.790;2022-12-07T02:06:34;34.63;;;32.27;;
22425;SDS011;11380;50.822;15.790;2022-12-07T02:11:38;35.20;;;33.00;;
22425;SDS011;11380;50.822;15.790;2022-12-07T02:17:03;35.73;;;33.40;;
22425;SDS011;11380;50.822;15.790;2022-12-07T02:22:22;35.13;;;32.93;;
22425;SDS011;11380;50.822;15.790;2022-12-07T02:33:16;33.83;;;31.83;;
22425;SDS011;11380;50.822;15.790;2022-12-07T02:43:52;34.20;;;32.20;;
22425;SDS011;11380;50.822;15.790;2022-12-07T02:49:01;34.80;;;32.70;;
22425;SDS011;11380;50.822;15.790;2022-12-07T02:54:07;34.50;;;32.57;;
22425;SDS011;11380;50.822;15.790;2022-12-07T03:21:18;34.13;;;32.23;;
22425;SDS011;11380;50.822;15.790;2022-12-07T03:26:36;34.20;;;32.30;;
22425;SDS011;11380;50.822;15.790;2022-12-07T03:31:47;33.10;;;31.20;;
22425;SDS011;11380;50.822;15.790;2022-12-07T03:42:10;32.83;;;31.00;;
22425;SDS011;11380;50.822;15.790;2022-12-07T03:47:18;34.03;;;32.03;;
22425;SDS011;11380;50.822;15.790;2022-12-07T03:57:45;34.50;;;32.30;;
22425;SDS011;11380;50.822;15.790;2022-12-07T04:02:52;35.15;;;33.02;;
22425;SDS011;11380;50.822;15.790;2022-12-07T04:07:54;34.70;;;32.60;;
22425;SDS011;11380;50.822;15.790;2022-12-07T04:12:58;35.70;;;33.40;;
22425;SDS011;11380;50.822;15.790;2022-12-07T04:18:00;35.47;;;33.13;;
22425;SDS011;11380;50.822;15.790;2022-12-07T04:23:02;38.37;;;35.47;;
22425;SDS011;11380;50.822;15.790;2022-12-07T04:28:04;36.90;;;34.43;;
22425;SDS011;11380;50.822;15.790;2022-12-07T04:33:07;34.47;;;32.47;;
22425;SDS011;11380;50.822;15.790;2022-12-07T04:38:10;35.67;;;33.20;;
22425;SDS011;11380;50.822;15.790;2022-12-07T04:43:12;34.33;;;32.27;;
22425;SDS011;11380;50.822;15.790;2022-12-07T04:48:14;34.47;;;32.30;;
22425;SDS011;11380;50.822;15.790;2022-12-07T04:53:16;35.93;;;33.80;;
22425;SDS011;11380;50.822;15.790;2022-12-07T04:58:18;34.37;;;32.20;;
22425;SDS011;11380;50.822;15.790;2022-12-07T05:03:21;35.33;;;33.03;;
22425;SDS011;11380;50.822;15.790;2022-12-07T05:08:23;34.57;;;32.37;;
22425;SDS011;11380;50.822;15.790;2022-12-07T05:13:26;35.60;;;33.30;;
22425;SDS011;11380;50.822;15.790;2022-12-07T05:18:28;35.23;;;33.00;;
22425;SDS011;11380;50.822;15.790;2022-12-07T05:23:30;37.17;;;34.70;;
22425;SDS011;11380;50.822;15.790;2022-12-07T05:28:32;35.00;;;32.83;;
22425;SDS011;11380;50.822;15.790;2022-12-07T05:33:34;35.83;;;33.53;;
22425;SDS011;11380;50.822;15.790;2022-12-07T05:38:37;36.80;;;34.50;;
22425;SDS011;11380;50.822;15.790;2022-12-07T05:43:39;36.40;;;34.10;;
22425;SDS011;11380;50.822;15.790;2022-12-07T05:48:40;35.23;;;33.03;;
22425;SDS011;11380;50.822;15.790;2022-12-07T05:53:42;35.57;;;33.27;;
22425;SDS011;11380;50.822;15.790;2022-12-07T05:58:45;36.37;;;34.00;;
22425;SDS011;11380;50.822;15.790;2022-12-07T06:04:05;35.00;;;32.80;;
22425;SDS011;11380;50.822;15.790;2022-12-07T06:09:07;34.73;;;32.63;;
22425;SDS011;11380;50.822;15.790;2022-12-07T06:14:09;34.00;;;31.93;;
22425;SDS011;11380;50.822;15.790;2022-12-07T06:19:12;35.67;;;33.27;;
22425;SDS011;11380;50.822;15.790;2022-12-07T06:24:15;36.03;;;33.70;;
22425;SDS011;11380;50.822;15.790;2022-12-07T06:29:19;36.23;;;33.93;;
22425;SDS011;11380;50.822;15.790;2022-12-07T06:34:22;36.23;;;33.83;;
22425;SDS011;11380;50.822;15.790;2022-12-07T06:39:26;41.50;;;38.37;;
22425;SDS011;11380;50.822;15.790;2022-12-07T06:44:30;35.80;;;33.50;;
22425;SDS011;11380;50.822;15.790;2022-12-07T06:49:32;37.90;;;35.10;;
22425;SDS011;11380;50.822;15.790;2022-12-07T06:54:34;35.83;;;33.53;;
22425;SDS011;11380;50.822;15.790;2022-12-07T06:59:36;36.13;;;33.73;;
22425;SDS011;11380;50.822;15.790;2022-12-07T07:04:38;35.53;;;33.27;;
22425;SDS011;11380;50.822;15.790;2022-12-07T07:09:40;36.73;;;34.20;;
22425;SDS011;11380;50.822;15.790;2022-12-07T07:14:42;35.20;;;32.90;;
22425;SDS011;11380;50.822;15.790;2022-12-07T07:19:44;35.53;;;33.17;;
22425;SDS011;11380;50.822;15.790;2022-12-07T07:24:46;35.03;;;32.83;;
22425;SDS011;11380;50.822;15.790;2022-12-07T07:29:48;36.13;;;33.67;;
22425;SDS011;11380;50.822;15.790;2022-12-07T07:34:51;45.87;;;41.10;;
22425;SDS011;11380;50.822;15.790;2022-12-07T07:39:53;42.20;;;38.40;;
22425;SDS011;11380;50.822;15.790;2022-12-07T07:44:55;41.90;;;37.70;;
22425;SDS011;11380;50.822;15.790;2022-12-07T07:49:57;49.40;;;44.03;;
22425;SDS011;11380;50.822;15.790;2022-12-07T07:54:59;53.67;;;43.43;;
22425;SDS011;11380;50.822;15.790;2022-12-07T08:00:05;46.70;;;42.07;;
22425;SDS011;11380;50.822;15.790;2022-12-07T08:05:16;45.47;;;41.40;;
22425;SDS011;11380;50.822;15.790;2022-12-07T08:10:18;41.77;;;38.40;;
22425;SDS011;11380;50.822;15.790;2022-12-07T08:15:21;41.00;;;37.63;;
22425;SDS011;11380;50.822;15.790;2022-12-07T08:20:23;40.37;;;37.30;;
22425;SDS011;11380;50.822;15.790;2022-12-07T08:25:26;42.50;;;39.10;;
22425;SDS011;11380;50.822;15.790;2022-12-07T08:30:29;54.77;;;47.27;;
22425;SDS011;11380;50.822;15.790;2022-12-07T08:35:32;50.00;;;44.70;;
22425;SDS011;11380;50.822;15.790;2022-12-07T08:40:35;51.60;;;43.17;;
22425;SDS011;11380;50.822;15.790;2022-12-07T08:45:37;37.40;;;34.77;;
22425;SDS011;11380;50.822;15.790;2022-12-07T08:50:42;40.07;;;37.07;;
22425;SDS011;11380;50.822;15.790;2022-12-07T08:55:46;41.07;;;37.97;;
22425;SDS011;11380;50.822;15.790;2022-12-07T09:00:50;36.80;;;34.60;;
22425;SDS011;11380;50.822;15.790;2022-12-07T09:05:52;35.47;;;33.27;;
22425;SDS011;11380;50.822;15.790;2022-12-07T09:10:55;34.30;;;32.30;;
22425;SDS011;11380;50.822;15.790;2022-12-07T09:15:57;34.40;;;32.40;;
22425;SDS011;11380;50.822;15.790;2022-12-07T09:21:00;35.10;;;33.10;;
22425;SDS011;11380;50.822;15.790;2022-12-07T09:26:03;34.67;;;32.67;;
22425;SDS011;11380;50.822;15.790;2022-12-07T09:31:07;34.50;;;32.43;;
22425;SDS011;11380;50.822;15.790;2022-12-07T09:36:12;35.13;;;33.03;;
22425;SDS011;11380;50.822;15.790;2022-12-07T09:41:14;36.03;;;33.83;;
22425;SDS011;11380;50.822;15.790;2022-12-07T09:46:17;34.67;;;32.73;;
22425;SDS011;11380;50.822;15.790;2022-12-07T09:51:22;34.50;;;32.50;;
22425;SDS011;11380;50.822;15.790;2022-12-07T09:56:28;34.30;;;32.30;;
22425;SDS011;11380;50.822;15.790;2022-12-07T10:01:32;35.23;;;33.13;;
22425;SDS011;11380;50.822;15.790;2022-12-07T10:06:35;35.87;;;33.67;;
22425;SDS011;11380;50.822;15.790;2022-12-07T10:22:55;34.87;;;32.87;;
22425;SDS011;11380;50.822;15.790;2022-12-07T10:28:09;33.50;;;31.60;;
22425;SDS011;11380;50.822;15.790;2022-12-07T10:38:44;34.95;;;32.85;;
22425;SDS011;11380;50.822;15.790;2022-12-07T10:43:54;34.60;;;32.60;;
22425;SDS011;11380;50.822;15.790;2022-12-07T10:49:10;34.43;;;32.47;;
22425;SDS011;11380;50.822;15.790;2022-12-07T10:54:36;34.20;;;32.30;;
22425;SDS011;11380;50.822;15.790;2022-12-07T11:16:32;34.10;;;32.20;;
22425;SDS011;11380;50.822;15.790;2022-12-07T11:27:31;35.27;;;33.27;;
22425;SDS011;11380;50.822;15.790;2022-12-07T11:32:45;35.90;;;33.70;;
22425;SDS011;11380;50.822;15.790;2022-12-07T11:38:12;34.23;;;32.33;;
22425;SDS011;11380;50.822;15.790;2022-12-07T11:48:31;35.77;;;33.57;;
22425;SDS011;11380;50.822;15.790;2022-12-07T11:53:40;35.10;;;33.10;;
22425;SDS011;11380;50.822;15.790;2022-12-07T11:58:57;36.90;;;34.50;;
22425;SDS011;11380;50.822;15.790;2022-12-07T12:04:22;35.37;;;33.27;;
22425;SDS011;11380;50.822;15.790;2022-12-07T12:09:28;35.83;;;33.73;;
22425;SDS011;11380;50.822;15.790;2022-12-07T12:19:59;35.23;;;33.23;;
22425;SDS011;11380;50.822;15.790;2022-12-07T12:25:41;35.27;;;33.17;;
22425;SDS011;11380;50.822;15.790;2022-12-07T12:31:03;35.27;;;33.27;;
22425;SDS011;11380;50.822;15.790;2022-12-07T12:36:54;34.60;;;32.63;;
22425;SDS011;11380;50.822;15.790;2022-12-07T12:47:00;35.90;;;33.60;;
22425;SDS011;11380;50.822;15.790;2022-12-07T12:57:38;34.97;;;32.87;;
22425;SDS011;11380;50.822;15.790;2022-12-07T13:08:12;35.50;;;33.40;;
22425;SDS011;11380;50.822;15.790;2022-12-07T13:13:29;35.37;;;33.00;;
22425;SDS011;11380;50.822;15.790;2022-12-07T13:18:36;36.57;;;34.27;;
22425;SDS011;11380;50.822;15.790;2022-12-07T13:34:28;36.17;;;33.97;;
22425;SDS011;11380;50.822;15.790;2022-12-07T13:39:47;36.47;;;34.17;;
22425;SDS011;11380;50.822;15.790;2022-12-07T13:44:55;36.97;;;34.57;;
22425;SDS011;11380;50.822;15.790;2022-12-07T13:49:59;36.40;;;34.00;;
22425;SDS011;11380;50.822;15.790;2022-12-07T13:55:08;41.50;;;38.10;;
22425;SDS011;11380;50.822;15.790;2022-12-07T14:00:20;37.53;;;35.03;;
22425;SDS011;11380;50.822;15.790;2022-12-07T14:05:24;39.20;;;36.33;;
22425;SDS011;11380;50.822;15.790;2022-12-07T14:15:36;36.28;;;33.98;;
22425;SDS011;11380;50.822;15.790;2022-12-07T14:20:39;35.70;;;33.50;;
22425;SDS011;11380;50.822;15.790;2022-12-07T14:25:46;35.90;;;33.67;;
22425;SDS011;11380;50.822;15.790;2022-12-07T14:30:53;37.47;;;34.97;;
22425;SDS011;11380;50.822;15.790;2022-12-07T14:35:55;37.47;;;34.97;;
22425;SDS011;11380;50.822;15.790;2022-12-07T14:40:59;38.60;;;35.80;;
22425;SDS011;11380;50.822;15.790;2022-12-07T14:46:03;36.77;;;34.27;;
22425;SDS011;11380;50.822;15.790;2022-12-07T14:51:07;37.03;;;34.60;;
22425;SDS011;11380;50.822;15.790;2022-12-07T14:56:13;35.60;;;33.40;;
22425;SDS011;11380;50.822;15.790;2022-12-07T15:01:16;34.93;;;32.93;;
22425;SDS011;11380;50.822;15.790;2022-12-07T15:06:18;45.00;;;40.67;;
22425;SDS011;11380;50.822;15.790;2022-12-07T15:11:21;40.70;;;37.47;;
22425;SDS011;11380;50.822;15.790;2022-12-07T15:16:23;37.27;;;34.67;;
22425;SDS011;11380;50.822;15.790;2022-12-07T15:21:26;42.27;;;38.60;;
22425;SDS011;11380;50.822;15.790;2022-12-07T15:26:29;36.97;;;34.37;;
22425;SDS011;11380;50.822;15.790;2022-12-07T15:31:31;35.33;;;33.27;;
22425;SDS011;11380;50.822;15.790;2022-12-07T15:36:36;34.47;;;32.47;;
22425;SDS011;11380;50.822;15.790;2022-12-07T15:41:38;35.00;;;32.97;;
22425;SDS011;11380;50.822;15.790;2022-12-07T15:46:41;35.77;;;33.53;;
22425;SDS011;11380;50.822;15.790;2022-12-07T15:51:43;36.87;;;34.40;;
22425;SDS011;11380;50.822;15.790;2022-12-07T15:56:47;37.47;;;34.97;;
22425;SDS011;11380;50.822;15.790;2022-12-07T16:01:49;37.03;;;34.50;;
22425;SDS011;11380;50.822;15.790;2022-12-07T16:06:52;37.73;;;35.10;;
22425;SDS011;11380;50.822;15.790;2022-12-07T16:11:55;40.33;;;37.00;;
22425;SDS011;11380;50.822;15.790;2022-12-07T16:16:57;39.93;;;36.80;;
22425;SDS011;11380;50.822;15.790;2022-12-07T16:21:59;41.27;;;37.57;;
22425;SDS011;11380;50.822;15.790;2022-12-07T16:27:02;42.50;;;38.70;;
22425;SDS011;11380;50.822;15.790;2022-12-07T16:32:04;44.37;;;40.33;;
22425;SDS011;11380;50.822;15.790;2022-12-07T16:37:07;47.57;;;42.83;;
22425;SDS011;11380;50.822;15.790;2022-12-07T16:42:10;43.90;;;39.63;;
22425;SDS011;11380;50.822;15.790;2022-12-07T16:47:12;69.87;;;53.73;;
22425;SDS011;11380;50.822;15.790;2022-12-07T16:52:14;47.37;;;42.87;;
22425;SDS011;11380;50.822;15.790;2022-12-07T16:57:22;42.80;;;38.90;;
22425;SDS011;11380;50.822;15.790;2022-12-07T17:02:25;38.90;;;36.20;;
22425;SDS011;11380;50.822;15.790;2022-12-07T17:07:29;41.43;;;38.07;;
22425;SDS011;11380;50.822;15.790;2022-12-07T17:12:31;36.30;;;33.83;;
22425;SDS011;11380;50.822;15.790;2022-12-07T17:17:34;38.13;;;34.93;;
22425;SDS011;11380;50.822;15.790;2022-12-07T17:22:36;40.17;;;37.07;;
22425;SDS011;11380;50.822;15.790;2022-12-07T17:27:39;40.70;;;37.27;;
22425;SDS011;11380;50.822;15.790;2022-12-07T17:32:42;40.27;;;36.83;;
22425;SDS011;11380;50.822;15.790;2022-12-07T17:37:45;39.50;;;36.17;;
22425;SDS011;11380;50.822;15.790;2022-12-07T17:42:49;52.83;;;47.60;;
22425;SDS011;11380;50.822;15.790;2022-12-07T17:47:52;37.93;;;35.20;;
22425;SDS011;11380;50.822;15.790;2022-12-07T17:52:56;43.00;;;39.00;;
22425;SDS011;11380;50.822;15.790;2022-12-07T17:58:18;45.07;;;41.07;;
22425;SDS011;11380;50.822;15.790;2022-12-07T18:03:19;48.53;;;43.60;;
22425;SDS011;11380;50.822;15.790;2022-12-07T18:08:22;41.10;;;37.70;;
22425;SDS011;11380;50.822;15.790;2022-12-07T18:13:25;39.83;;;36.63;;
22425;SDS011;11380;50.822;15.790;2022-12-07T18:18:38;38.50;;;35.40;;
22425;SDS011;11380;50.822;15.790;2022-12-07T18:23:44;40.07;;;36.50;;
22425;SDS011;11380;50.822;15.790;2022-12-07T18:28:53;36.13;;;33.73;;
22425;SDS011;11380;50.822;15.790;2022-12-07T18:33:56;36.27;;;33.77;;
22425;SDS011;11380;50.822;15.790;2022-12-07T18:39:06;35.50;;;33.10;;
22425;SDS011;11380;50.822;15.790;2022-12-07T18:44:10;35.73;;;33.40;;
22425;SDS011;11380;50.822;15.790;2022-12-07T18:54:20;39.97;;;36.57;;
22425;SDS011;11380;50.822;15.790;2022-12-07T18:59:24;39.33;;;36.23;;
22425;SDS011;11380;50.822;15.790;2022-12-07T19:04:45;35.27;;;33.07;;
22425;SDS011;11380;50.822;15.790;2022-12-07T19:09:49;36.03;;;33.77;;
22425;SDS011;11380;50.822;15.790;2022-12-07T19:14:53;62.57;;;45.27;;
22425;SDS011;11380;50.822;15.790;2022-12-07T19:19:56;35.47;;;33.13;;
22425;SDS011;11380;50.822;15.790;2022-12-07T19:24:59;35.53;;;33.13;;
22425;SDS011;11380;50.822;15.790;2022-12-07T19:30:01;36.57;;;33.83;;
22425;SDS011;11380;50.822;15.790;2022-12-07T19:35:05;35.10;;;32.80;;
22425;SDS011;11380;50.822;15.790;2022-12-07T19:40:08;37.80;;;34.90;;
22425;SDS011;11380;50.822;15.790;2022-12-07T19:45:12;38.67;;;35.57;;
22425;SDS011;11380;50.822;15.790;2022-12-07T19:50:14;59.10;;;42.27;;
22425;SDS011;11380;50.822;15.790;2022-12-07T19:55:16;37.77;;;35.17;;
22425;SDS011;11380;50.822;15.790;2022-12-07T20:00:19;43.73;;;39.17;;
22425;SDS011;11380;50.822;15.790;2022-12-07T20:05:25;48.05;;;39.45;;
22425;SDS011;11380;50.822;15.790;2022-12-07T20:10:28;50.33;;;41.23;;
22425;SDS011;11380;50.822;15.790;2022-12-07T20:15:30;43.43;;;39.17;;
22425;SDS011;11380;50.822;15.790;2022-12-07T20:20:33;50.40;;;42.43;;
22425;SDS011;11380;50.822;15.790;2022-12-07T20:25:36;36.20;;;33.57;;
22425;SDS011;11380;50.822;15.790;2022-12-07T20:30:46;36.30;;;33.60;;
22425;SDS011;11380;50.822;15.790;2022-12-07T20:35:49;36.90;;;34.37;;
22425;SDS011;11380;50.822;15.790;2022-12-07T20:40:52;37.37;;;34.57;;
22425;SDS011;11380;50.822;15.790;2022-12-07T20:45:57;36.83;;;33.93;;
22425;SDS011;11380;50.822;15.790;2022-12-07T20:51:05;35.57;;;33.37;;
22425;SDS011;11380;50.822;15.790;2022-12-07T20:56:06;34.67;;;32.37;;
22425;SDS011;11380;50.822;15.790;2022-12-07T21:01:21;35.50;;;33.00;;
22425;SDS011;11380;50.822;15.790;2022-12-07T21:06:24;34.37;;;31.97;;
22425;SDS011;11380;50.822;15.790;2022-12-07T21:11:29;34.10;;;32.00;;
22425;SDS011;11380;50.822;15.790;2022-12-07T21:16:33;34.53;;;32.37;;
22425;SDS011;11380;50.822;15.790;2022-12-07T21:21:39;34.67;;;32.43;;
22425;SDS011;11380;50.822;15.790;2022-12-07T21:26:41;36.13;;;33.53;;
22425;SDS011;11380;50.822;15.790;2022-12-07T21:31:44;36.93;;;34.33;;
22425;SDS011;11380;50.822;15.790;2022-12-07T21:36:49;40.53;;;37.27;;
22425;SDS011;11380;50.822;15.790;2022-12-07T21:41:52;39.83;;;35.93;;
22425;SDS011;11380;50.822;15.790;2022-12-07T21:46:54;40.77;;;36.97;;
22425;SDS011;11380;50.822;15.790;2022-12-07T21:51:57;38.43;;;35.10;;
22425;SDS011;11380;50.822;15.790;2022-12-07T21:57:00;42.23;;;37.67;;
22425;SDS011;11380;50.822;15.790;2022-12-07T22:02:05;38.03;;;34.80;;
22425;SDS011;11380;50.822;15.790;2022-12-07T22:07:08;38.77;;;35.60;;
22425;SDS011;11380;50.822;15.790;2022-12-07T22:12:12;35.77;;;33.03;;
22425;SDS011;11380;50.822;15.790;2022-12-07T22:17:15;35.37;;;33.07;;
22425;SDS011;11380;50.822;15.790;2022-12-07T22:22:18;35.40;;;33.10;;
22425;SDS011;11380;50.822;15.790;2022-12-07T22:27:21;34.53;;;32.23;;
22425;SDS011;11380;50.822;15.790;2022-12-07T22:32:23;35.07;;;32.57;;
22425;SDS011;11380;50.822;15.790;2022-12-07T22:37:27;37.20;;;34.47;;
22425;SDS011;11380;50.822;15.790;2022-12-07T22:42:31;37.70;;;34.80;;
22425;SDS011;11380;50.822;15.790;2022-12-07T22:47:33;34.00;;;31.70;;
22425;SDS011;11380;50.822;15.790;2022-12-07T22:52:36;34.57;;;32.00;;
22425;SDS011;11380;50.822;15.790;2022-12-07T22:57:38;34.30;;;32.20;;
22425;SDS011;11380;50.822;15.790;2022-12-07T23:02:41;34.67;;;32.43;;
22425;SDS011;11380;50.822;15.790;2022-12-07T23:07:43;35.73;;;33.23;;
22425;SDS011;11380;50.822;15.790;2022-12-07T23:12:45;35.90;;;33.50;;
22425;SDS011;11380;50.822;15.790;2022-12-07T23:18:05;36.27;;;33.83;;
22425;SDS011;11380;50.822;15.790;2022-12-07T23:23:07;35.23;;;32.70;;
22425;SDS011;11380;50.822;15.790;2022-12-07T23:28:09;36.63;;;34.03;;
22425;SDS011;11380;50.822;15.790;2022-12-07T23:33:11;36.97;;;34.37;;
22425;SDS011;11380;50.822;15.790;2022-12-07T23:38:13;41.33;;;37.73;;
22425;SDS011;11380;50.822;15.790;2022-12-07T23:43:15;37.07;;;34.27;;
22425;SDS011;11380;50.822;15.790;2022-12-07T23:48:17;37.87;;;35.07;;
22425;SDS011;11380;50.822;15.790;2022-12-07T23:53:19;38.23;;;35.00;;
22425;SDS011;11380;50.822;15.790;2022-12-07T23:58:22;35.07;;;32.87;;
